Time;durP1;ratioP1;P1;durP2;ratioP2;P2;SDS_P1;SDS_P2;PMS_P1;PMS_P2;Temp;Humidity;BMP_temperature;BMP_pressure;BME280_temperature;BME280_humidity;BME280_pressure;Samples;Min_cycle;Max_cycle;Signal;HPM_P1;HPM_P2
2024/04/22 00:01:58;;;;;;;6.73;4.03;;;;;;;6.46;65.88;100350.09;4449055;26;20029;-67
2024/04/22 00:03:58;;;;;;;7.07;4.07;;;;;;;6.37;66.25;100349.81;4448088;26;20337;-66
2024/04/22 00:05:59;;;;;;;7.10;3.90;;;;;;;6.19;66.40;100351.13;4452091;26;20014;-67
2024/04/22 00:07:59;;;;;;;10.48;4.25;;;;;;;6.20;66.35;100352.84;4449166;26;20008;-70
2024/04/22 00:10:00;;;;;;;7.28;3.97;;;;;;;6.29;66.12;100354.84;4448861;26;20000;-68
2024/04/22 00:12:00;;;;;;;6.18;3.83;;;;;;;6.28;66.00;100345.16;4448021;26;20012;-67
2024/04/22 00:14:01;;;;;;;6.40;3.92;;;;;;;6.29;65.80;100353.97;4448106;26;20000;-66
2024/04/22 00:16:01;;;;;;;7.72;4.38;;;;;;;6.37;65.80;100347.16;4448777;26;20365;-67
2024/04/22 00:18:02;;;;;;;6.38;4.15;;;;;;;6.40;65.87;100349.59;4448981;26;20044;-66
2024/04/22 00:20:03;;;;;;;7.95;4.25;;;;;;;6.28;65.99;100347.81;4448440;26;20004;-67
2024/04/22 00:22:03;;;;;;;5.70;3.30;;;;;;;6.38;65.81;100350.66;4448514;26;20048;-66
2024/04/22 00:24:06;;;;;;;5.55;3.53;;;;;;;6.32;65.87;100357.28;4448118;26;20008;-68
2024/04/22 00:26:06;;;;;;;7.70;4.03;;;;;;;6.26;66.07;100349.72;4448883;26;20000;-68
2024/04/22 00:28:06;;;;;;;5.63;3.55;;;;;;;6.27;65.95;100348.78;4422695;26;20087;-67
2024/04/22 00:30:07;;;;;;;8.87;4.23;;;;;;;6.38;65.65;100340.03;4437848;26;20009;-68
2024/04/22 00:32:08;;;;;;;6.55;3.65;;;;;;;6.33;65.92;100348.31;4459879;26;20929;-71
2024/04/22 00:34:08;;;;;;;5.85;3.40;;;;;;;6.58;65.01;100346.56;4459125;26;20000;-66
2024/04/22 00:36:10;;;;;;;4.88;3.10;;;;;;;6.55;65.15;100346.78;4458557;26;20000;-67
2024/04/22 00:38:17;;;;;;;6.53;3.38;;;;;;;6.69;64.50;100346.66;4467706;26;20000;-71
2024/04/22 00:40:18;;;;;;;6.35;3.15;;;;;;;6.66;64.86;100346.03;4467930;26;20000;-66
2024/04/22 00:42:20;;;;;;;;;;;;;;;6.47;64.14;100343.84;4463586;26;20000;-67
2024/04/22 00:44:20;;;;;;;;;;;;;;;6.60;64.52;100341.13;4463975;26;19933;-73
2024/04/22 00:46:21;;;;;;;6.40;3.33;;;;;;;6.58;64.43;100337.75;4463417;26;19925;-73
2024/04/22 00:48:22;;;;;;;7.60;3.20;;;;;;;6.50;64.23;100343.63;4463909;26;20012;-68
2024/04/22 00:50:24;;;;;;;6.30;3.30;;;;;;;6.54;64.41;100351.25;4463660;26;20219;-67
2024/04/22 00:52:25;;;;;;;;;;;;;;;6.50;63.25;100346.28;4461063;26;20035;-66
2024/04/22 00:54:26;;;;;;;5.45;3.40;;;;;;;6.58;63.83;100346.56;4448801;26;19925;-67
2024/04/22 00:56:28;;;;;;;5.45;3.35;;;;;;;6.24;64.06;100357.81;4448163;26;20010;-68
2024/04/22 00:58:29;;;;;;;5.55;3.15;;;;;;;6.58;63.38;100351.88;4448419;26;20004;-65
2024/04/22 01:00:30;;;;;;;7.35;3.78;;;;;;;6.48;63.74;100353.50;4448047;26;20000;-67
2024/04/22 01:02:31;;;;;;;5.18;3.30;;;;;;;6.53;63.54;100354.00;4448289;26;20014;-68
2024/04/22 01:04:35;;;;;;;5.35;3.10;;;;;;;6.72;63.04;100348.22;4450838;26;20000;-68
2024/04/22 01:06:36;;;;;;;5.90;3.58;;;;;;;6.76;62.92;100347.03;4450840;26;20000;-68
2024/04/22 01:08:36;;;;;;;5.93;3.30;;;;;;;6.72;62.98;100349.06;4420179;26;20364;-68
2024/04/22 01:10:37;;;;;;;5.63;3.20;;;;;;;6.58;62.99;100351.03;4450760;26;20012;-68
2024/04/22 01:12:37;;;;;;;6.28;3.53;;;;;;;6.64;63.08;100348.78;4450675;26;20015;-67
2024/04/22 01:14:38;;;;;;;6.88;3.50;;;;;;;6.38;63.57;100346.22;4450798;26;20008;-67
2024/04/22 01:16:38;;;;;;;6.60;3.20;;;;;;;6.28;63.62;100357.59;4450844;26;20000;-67
2024/04/22 01:18:39;;;;;;;5.30;3.00;;;;;;;6.40;63.22;100357.56;4451107;26;20011;-66
2024/04/22 01:20:39;;;;;;;5.30;3.25;;;;;;;6.48;63.09;100361.47;4419926;26;20868;-68
2024/04/22 01:22:40;;;;;;;5.73;3.43;;;;;;;6.17;63.45;100348.59;4449592;26;19996;-67
2024/04/22 01:24:40;;;;;;;7.13;3.42;;;;;;;6.22;63.10;100358.88;4419855;26;20911;-67
2024/04/22 01:26:41;;;;;;;6.60;3.20;;;;;;;6.15;63.21;100352.28;4450920;26;20000;-67
2024/04/22 01:28:41;;;;;;;6.03;3.03;;;;;;;6.38;62.57;100351.53;4450805;26;20006;-68
2024/04/22 01:30:42;;;;;;;5.47;3.27;;;;;;;6.36;62.66;100352.59;4420178;26;19993;-68
2024/04/22 01:32:42;;;;;;;6.57;3.10;;;;;;;6.20;63.05;100353.66;4449077;26;20231;-67
2024/04/22 01:34:44;;;;;;;6.20;3.45;;;;;;;6.26;62.86;100349.72;4450372;26;20008;-66
2024/04/22 01:36:44;;;;;;;;;;;;;;;6.47;62.32;100342.03;4451969;26;20070;-68
2024/04/22 01:38:45;;;;;;;6.90;3.50;;;;;;;6.37;62.31;100338.38;4451731;26;19933;-67
2024/04/22 01:40:45;;;;;;;5.38;3.08;;;;;;;6.27;62.10;100348.78;4475076;26;19992;-66
2024/04/22 01:42:46;;;;;;;5.93;3.35;;;;;;;5.97;62.55;100351.78;4471891;26;19999;-67
2024/04/22 01:44:46;;;;;;;5.40;3.10;;;;;;;6.03;62.16;100346.91;4476255;26;20006;-68
2024/04/22 01:46:46;;;;;;;7.23;3.47;;;;;;;5.99;61.99;100342.78;4450509;26;20336;-68
2024/04/22 01:48:47;;;;;;;5.63;2.97;;;;;;;6.02;61.70;100339.91;4454940;26;20234;-67
2024/04/22 01:50:47;;;;;;;5.82;3.10;;;;;;;5.84;62.04;100341.16;4469623;26;20010;-67
2024/04/22 01:52:48;;;;;;;5.43;3.13;;;;;;;6.02;61.54;100342.56;4458643;26;20000;-67
2024/04/22 01:54:48;;;;;;;5.57;3.20;;;;;;;5.93;61.75;100340.53;4450476;26;20257;-66
2024/04/22 01:56:49;;;;;;;6.15;3.38;;;;;;;6.03;61.49;100333.66;4449422;26;20230;-68
2024/04/22 01:58:51;;;;;;;9.25;3.42;;;;;;;6.07;61.33;100336.94;4450538;26;19996;-67
2024/04/22 02:00:52;;;;;;;6.90;3.10;;;;;;;6.04;61.79;100337.13;4450332;26;19996;-70
2024/04/22 02:02:52;;;;;;;4.93;2.78;;;;;;;6.04;61.67;100338.00;4450017;26;20337;-67
2024/04/22 02:04:53;;;;;;;6.93;3.67;;;;;;;6.08;61.37;100336.81;4450461;26;20000;-66
2024/04/22 02:06:53;;;;;;;10.77;3.57;;;;;;;5.70;62.21;100345.63;4419915;26;20015;-66
2024/04/22 02:08:54;;;;;;;6.93;3.20;;;;;;;5.75;61.89;100348.81;4456945;26;20690;-66
2024/04/22 02:11:08;;;;;;;7.70;3.37;;;;;;;5.84;61.52;100343.81;4466319;26;20282;-67
2024/04/22 02:13:10;;;;;;;6.00;3.05;;;;;;;5.62;61.82;100343.47;4451329;26;20051;-66
2024/04/22 02:15:10;;;;;;;4.80;2.80;;;;;;;5.71;61.50;100335.88;4449845;26;20000;-66
2024/04/22 02:17:10;;;;;;;7.82;3.38;;;;;;;5.78;61.02;100337.13;4450878;26;20004;-67
2024/04/22 02:19:11;;;;;;;6.03;3.40;;;;;;;5.63;61.22;100336.41;4450200;26;20005;-69
2024/04/22 02:21:11;;;;;;;5.75;2.90;;;;;;;5.60;60.83;100341.91;4450413;26;20055;-69
2024/04/22 02:23:12;;;;;;;5.22;2.70;;;;;;;5.71;60.88;100341.19;4449896;26;20014;-68
2024/04/22 02:25:12;;;;;;;5.65;3.00;;;;;;;5.52;60.75;100344.22;4451414;26;20012;-68
2024/04/22 02:27:13;;;;;;;5.32;2.67;;;;;;;5.62;60.56;100348.78;4451799;26;20008;-68
2024/04/22 02:29:14;;;;;;;7.13;2.80;;;;;;;5.71;60.46;100349.97;4451689;26;20000;-69
2024/04/22 02:31:14;;;;;;;8.10;3.38;;;;;;;5.77;60.18;100341.56;4420683;26;20365;-66
2024/04/22 02:33:15;;;;;;;6.25;2.85;;;;;;;5.68;60.77;100357.31;4451771;26;20015;-66
2024/04/22 02:35:15;;;;;;;6.28;2.70;;;;;;;5.67;60.92;100347.63;4479437;26;20643;-65
2024/04/22 02:37:16;;;;;;;6.57;2.83;;;;;;;5.55;61.04;100350.16;4479613;26;20045;-68
2024/04/22 02:39:17;;;;;;;5.18;3.00;;;;;;;5.73;60.83;100356.03;4479142;26;20137;-68
2024/04/22 02:41:17;;;;;;;6.32;3.05;;;;;;;5.74;60.77;100347.13;4478994;26;20483;-68
2024/04/22 02:43:18;;;;;;;5.18;3.15;;;;;;;5.71;60.78;100352.63;4478610;26;19999;-69
2024/04/22 02:45:20;;;;;;;5.37;2.73;;;;;;;5.64;60.68;100346.06;4478517;26;20090;-66
2024/04/22 02:47:21;;;;;;;4.57;3.00;;;;;;;5.71;60.76;100351.78;4477542;26;20337;-66
2024/04/22 02:49:21;;;;;;;6.05;3.13;;;;;;;5.65;60.95;100347.75;4472981;26;20000;-67
2024/04/22 02:51:22;;;;;;;6.35;3.10;;;;;;;5.60;60.78;100348.06;4479160;26;20068;-67
2024/04/22 02:53:22;;;;;;;6.60;2.88;;;;;;;5.67;60.69;100351.13;4478689;26;20010;-68
2024/04/22 02:55:28;;;;;;;7.18;2.92;;;;;;;5.46;61.14;100348.16;4448930;26;19997;-68
2024/04/22 02:57:29;;;;;;;7.38;3.58;;;;;;;5.52;60.98;100346.88;4479873;26;20030;-68
2024/04/22 02:59:29;;;;;;;5.10;3.03;;;;;;;5.33;61.01;100356.09;4448351;26;20004;-67
2024/04/22 03:01:32;;;;;;;5.40;2.70;;;;;;;5.46;61.02;100349.00;4447619;26;20473;-68
2024/04/22 03:03:33;;;;;;;6.63;2.90;;;;;;;5.49;60.81;100341.78;4448386;26;20004;-66
2024/04/22 03:05:36;;;;;;;5.50;3.17;;;;;;;5.57;60.60;100355.38;4449425;26;20015;-66
2024/04/22 03:07:36;;;;;;;7.25;2.72;;;;;;;5.65;60.29;100353.06;4449132;26;20298;-67
2024/04/22 03:09:40;;;;;;;5.82;2.72;;;;;;;5.76;60.28;100349.66;4449335;26;20012;-68
2024/04/22 03:11:40;;;;;;;5.43;2.92;;;;;;;5.78;60.03;100343.28;4449594;26;20003;-67
2024/04/22 03:13:41;;;;;;;6.32;2.97;;;;;;;5.52;60.62;100344.22;4450989;26;20001;-68
2024/04/22 03:15:42;;;;;;;4.97;2.85;;;;;;;5.51;60.76;100342.53;4464209;26;20015;-66
2024/04/22 03:17:46;;;;;;;5.50;3.10;;;;;;;5.71;60.61;100346.50;4462511;26;19996;-67
2024/04/22 03:19:49;;;;;;;5.53;2.92;;;;;;;5.63;60.70;100342.53;4468360;26;20038;-69
2024/04/22 03:21:50;;;;;;;5.57;3.00;;;;;;;5.31;61.47;100336.78;4458718;26;20008;-67
2024/04/22 03:23:50;;;;;;;7.60;3.20;;;;;;;5.40;61.37;100343.28;4449663;26;20004;-67
2024/04/22 03:25:51;;;;;;;7.63;2.83;;;;;;;5.31;61.54;100340.28;4448742;26;20004;-67
2024/04/22 03:27:51;;;;;;;4.90;2.83;;;;;;;5.45;61.30;100346.44;4448404;26;20612;-66
2024/04/22 03:29:52;;;;;;;6.85;3.15;;;;;;;5.59;60.83;100348.16;4449109;26;20886;-66
2024/04/22 03:31:52;;;;;;;5.50;2.63;;;;;;;5.57;61.01;100350.09;4448955;26;20000;-67
2024/04/22 03:33:53;;;;;;;4.50;2.38;;;;;;;5.61;60.84;100335.66;4448155;26;20004;-67
2024/04/22 03:35:59;;;;;;;9.03;3.00;;;;;;;5.40;61.37;100344.09;4448427;26;20357;-66
2024/04/22 03:37:59;;;;;;;6.50;3.10;;;;;;;5.46;61.37;100338.41;4447031;26;20018;-67
2024/04/22 03:39:59;;;;;;;5.45;2.90;;;;;;;5.40;61.51;100338.81;4449147;26;20015;-65
2024/04/22 03:42:00;;;;;;;5.43;2.70;;;;;;;5.57;60.92;100334.19;4420721;26;20016;-66
2024/04/22 03:44:01;;;;;;;5.90;3.10;;;;;;;5.66;60.86;100332.69;4465250;26;20535;-66
2024/04/22 03:50:40;;;;;;;5.47;2.78;;;;;;;5.35;61.54;100335.63;4427887;26;20072;-68
2024/04/22 03:52:41;;;;;;;6.15;2.65;;;;;;;5.31;61.52;100334.13;4430148;26;20001;-66
2024/04/22 03:54:41;;;;;;;4.47;2.50;;;;;;;5.52;60.96;100330.97;4430085;26;20016;-68
2024/04/22 03:56:42;;;;;;;5.93;2.63;;;;;;;5.41;61.30;100342.31;4426894;26;20796;-66
2024/04/22 03:58:42;;;;;;;6.30;3.13;;;;;;;5.41;61.20;100340.50;4419605;26;20451;-66
2024/04/22 04:00:42;;;;;;;5.17;2.60;;;;;;;5.44;60.85;100344.75;4420955;26;20008;-68
2024/04/22 04:02:43;;;;;;;4.43;2.33;;;;;;;5.54;60.68;100339.69;4419011;26;20276;-67
2024/04/22 04:04:43;;;;;;;6.93;2.90;;;;;;;5.18;61.19;100347.38;4419257;26;20671;-67
2024/04/22 04:06:44;;;;;;;6.03;3.10;;;;;;;5.14;61.37;100344.06;4418074;26;20012;-67
2024/04/22 04:08:46;;;;;;;4.37;2.37;;;;;;;5.11;61.20;100346.06;4419144;26;19997;-67
2024/04/22 04:10:46;;;;;;;5.78;3.00;;;;;;;4.99;61.53;100348.59;4419190;26;20311;-70
2024/04/22 04:12:47;;;;;;;7.23;3.23;;;;;;;4.80;61.78;100350.75;4418720;26;20045;-67
2024/04/22 04:14:47;;;;;;;7.10;3.30;;;;;;;4.83;61.68;100355.84;4419330;26;20465;-67
2024/04/22 04:16:48;;;;;;;7.13;3.47;;;;;;;4.96;61.34;100351.44;4419251;26;20372;-66
2024/04/22 04:18:48;;;;;;;8.80;3.27;;;;;;;5.01;61.22;100353.78;4419390;26;20227;-68
2024/04/22 04:20:48;;;;;;;7.00;3.87;;;;;;;4.82;61.66;100357.63;4418994;26;20353;-67
2024/04/22 04:22:49;;;;;;;5.50;3.15;;;;;;;4.82;61.66;100354.16;4418471;26;20012;-66
2024/04/22 04:24:49;;;;;;;6.30;3.83;;;;;;;4.87;61.58;100356.50;4419423;26;20783;-66
2024/04/22 04:26:50;;;;;;;8.73;3.63;;;;;;;4.79;61.39;100349.03;4419096;26;20329;-66
2024/04/22 04:28:50;;;;;;;5.77;3.70;;;;;;;4.87;61.28;100352.03;4419470;26;20966;-68
2024/04/22 04:30:58;;;;;;;7.88;3.92;;;;;;;4.80;61.41;100348.97;4388453;27;19997;-67
2024/04/22 04:32:58;;;;;;;7.20;3.42;;;;;;;4.88;61.41;100353.72;4387993;27;20012;-67
2024/04/22 04:34:59;;;;;;;7.30;3.57;;;;;;;5.04;60.91;100361.53;4419377;26;20004;-66
2024/04/22 04:36:59;;;;;;;6.25;3.70;;;;;;;4.86;61.21;100355.66;4419698;26;20018;-68
2024/04/22 04:39:01;;;;;;;6.50;3.20;;;;;;;4.82;61.14;100365.59;4422350;26;20005;-67
2024/04/22 04:41:02;;;;;;;6.88;3.30;;;;;;;4.82;60.72;100354.16;4431489;26;20013;-68
2024/04/22 04:43:03;;;;;;;;;;;;;;;4.72;60.13;100363.63;4409110;27;20387;-68
2024/04/22 04:45:04;;;;;;;7.47;3.42;;;;;;;4.83;60.19;100364.63;4440055;26;19929;-66
2024/04/22 04:47:04;;;;;;;7.88;4.20;;;;;;;4.59;60.42;100359.13;4450927;26;19996;-66
2024/04/22 04:49:10;;;;;;;6.03;3.50;;;;;;;4.70;59.82;100366.41;4470142;26;20039;-68
2024/04/22 04:51:11;;;;;;;6.30;3.03;;;;;;;4.66;60.18;100368.41;4470977;26;20019;-68
2024/04/22 04:53:12;;;;;;;5.90;3.45;;;;;;;4.81;59.79;100369.22;4468065;26;19996;-69
2024/04/22 04:55:12;;;;;;;7.60;3.35;;;;;;;4.81;59.74;100363.91;4465219;26;20046;-67
2024/04/22 04:57:13;;;;;;;7.70;3.50;;;;;;;4.86;59.72;100370.69;4463843;26;20007;-67
2024/04/22 04:59:13;;;;;;;7.30;2.90;;;;;;;4.80;59.61;100361.34;4468353;26;19996;-68
2024/04/22 05:01:15;;;;;;;7.17;3.00;;;;;;;4.80;60.00;100375.44;4466502;26;20006;-67
2024/04/22 05:03:15;;;;;;;5.68;3.30;;;;;;;4.71;60.01;100364.59;4454451;26;20222;-67
2024/04/22 05:05:16;;;;;;;6.63;3.33;;;;;;;4.54;60.21;100369.19;4450730;26;20041;-67
2024/04/22 05:07:16;;;;;;;6.65;3.55;;;;;;;4.57;60.15;100368.13;4449647;26;20600;-68
2024/04/22 05:09:17;;;;;;;7.43;3.40;;;;;;;4.75;59.74;100364.28;4450466;26;20407;-66
2024/04/22 05:11:19;;;;;;;5.43;2.88;;;;;;;4.82;59.53;100362.09;4450895;26;20015;-68
2024/04/22 05:13:19;;;;;;;7.60;2.90;;;;;;;4.78;59.49;100368.53;4420781;26;20011;-65
2024/04/22 05:15:19;;;;;;;7.47;3.20;;;;;;;4.94;58.93;100363.09;4454834;26;20000;-68
2024/04/22 05:17:20;;;;;;;7.13;3.00;;;;;;;4.81;59.16;100369.22;4464192;26;20000;-66
2024/04/22 05:19:20;;;;;;;5.30;2.97;;;;;;;4.78;59.18;100366.75;4452887;26;20015;-67
2024/04/22 05:21:21;;;;;;;5.85;3.13;;;;;;;4.80;59.04;100361.34;4450598;26;20000;-65
2024/04/22 05:23:21;;;;;;;6.53;3.00;;;;;;;4.74;59.38;100367.88;4449872;26;20008;-67
2024/04/22 05:25:22;;;;;;;7.23;3.27;;;;;;;4.78;59.23;100369.41;4450245;26;19996;-66
2024/04/22 05:27:22;;;;;;;5.80;3.00;;;;;;;4.79;58.90;100376.41;4450739;26;19996;-66
2024/04/22 05:29:23;;;;;;;5.90;3.00;;;;;;;4.92;58.95;100375.56;4450765;26;20222;-68
2024/04/22 05:31:25;;;;;;;6.90;3.60;;;;;;;5.04;58.58;100380.09;4453072;26;20029;-67
2024/04/22 05:38:03;;;;;;;5.72;3.20;;;;;;;4.93;58.52;100372.84;4450522;26;20011;-67
2024/04/22 05:40:04;;;;;;;6.43;3.97;;;;;;;4.82;59.09;100378.00;4449869;26;20028;-66
2024/04/22 05:42:06;;;;;;;5.43;3.03;;;;;;;4.78;58.88;100377.34;4449684;26;20589;-67
2024/04/22 05:44:06;;;;;;;5.50;3.33;;;;;;;4.86;58.51;100381.28;4449596;26;20010;-66
2024/04/22 05:46:08;;;;;;;7.60;3.17;;;;;;;4.74;58.67;100373.19;4449630;26;20340;-68
2024/04/22 05:48:08;;;;;;;7.70;3.30;;;;;;;4.64;58.84;100372.94;4449669;26;20332;-67
2024/04/22 05:50:09;;;;;;;5.35;2.72;;;;;;;4.74;58.74;100383.78;4449298;26;20025;-67
2024/04/22 05:52:09;;;;;;;8.17;3.10;;;;;;;4.65;58.87;100387.00;4450372;26;20008;-66
2024/04/22 05:54:10;;;;;;;6.60;3.63;;;;;;;4.62;59.13;100382.78;4450263;26;20338;-67
2024/04/22 05:56:10;;;;;;;5.55;3.05;;;;;;;4.79;59.09;100384.34;4449881;26;20082;-65
2024/04/22 05:58:10;;;;;;;7.37;3.40;;;;;;;4.75;58.85;100380.19;4449718;26;20011;-67
2024/04/22 06:00:11;;;;;;;7.45;3.42;;;;;;;4.52;58.99;100385.16;4449531;26;20440;-66
2024/04/22 06:02:12;;;;;;;11.57;3.50;;;;;;;4.75;58.70;100387.28;4448987;26;20732;-66
2024/04/22 06:04:12;;;;;;;7.57;3.40;;;;;;;4.92;58.59;100386.19;4449312;26;20028;-66
2024/04/22 06:06:12;;;;;;;5.88;3.47;;;;;;;4.91;58.40;100385.34;4449397;26;20000;-67
2024/04/22 06:08:13;;;;;;;7.25;3.08;;;;;;;5.28;57.92;100387.38;4449565;26;20395;-66
2024/04/22 06:10:13;;;;;;;6.40;3.33;;;;;;;5.23;57.87;100384.16;4418667;26;20389;-66
2024/04/22 06:12:14;;;;;;;6.95;3.50;;;;;;;5.23;58.10;100392.97;4448719;26;20014;-67
2024/04/22 06:14:14;;;;;;;6.47;3.10;;;;;;;5.08;58.13;100393.97;4451133;26;20008;-68
2024/04/22 06:16:15;;;;;;;5.45;3.40;;;;;;;5.00;58.49;100400.63;4454019;26;20769;-67
2024/04/22 06:18:15;;;;;;;6.23;3.70;;;;;;;5.20;58.15;100389.66;4449660;26;20008;-66
2024/04/22 06:20:17;;;;;;;6.50;3.60;;;;;;;5.19;58.30;100394.13;4449469;26;20444;-66
2024/04/22 06:22:17;;;;;;;6.38;3.58;;;;;;;5.43;58.25;100396.94;4448839;26;20238;-67
2024/04/22 06:24:18;;;;;;;6.90;3.78;;;;;;;5.25;58.31;100390.22;4450005;26;20007;-66
2024/04/22 06:26:18;;;;;;;5.90;3.22;;;;;;;5.18;58.49;100391.59;4449263;26;19996;-66
2024/04/22 06:28:19;;;;;;;5.13;2.90;;;;;;;5.63;57.72;100392.09;4449865;26;20012;-66
2024/04/22 06:30:19;;;;;;;6.30;2.93;;;;;;;5.69;57.36;100383.72;4449827;26;20004;-65
2024/04/22 06:32:19;;;;;;;6.20;3.10;;;;;;;5.76;57.22;100386.78;4449122;26;20568;-66
2024/04/22 06:34:20;;;;;;;8.32;3.05;;;;;;;5.58;57.32;100383.59;4447460;26;20003;-65
2024/04/22 06:36:22;;;;;;;7.57;3.30;;;;;;;5.55;57.51;100383.81;4448528;26;20004;-66
2024/04/22 06:38:22;;;;;;;8.15;3.50;;;;;;;5.66;57.36;100386.59;4449648;26;20305;-67
2024/04/22 06:40:22;;;;;;;6.22;3.30;;;;;;;5.89;57.04;100382.34;4419816;26;20330;-65
2024/04/22 06:42:28;;;;;;;6.20;3.67;;;;;;;5.66;56.68;100381.28;4464552;26;20004;-67
2024/04/22 06:44:30;;;;;;;6.10;3.42;;;;;;;5.86;56.70;100387.88;4455494;26;20004;-67
2024/04/22 06:46:32;;;;;;;6.55;3.67;;;;;;;5.95;56.75;100381.09;4457155;26;20050;-66
2024/04/22 06:48:32;;;;;;;5.78;3.45;;;;;;;5.94;56.56;100380.22;4462998;26;20014;-66
2024/04/22 06:50:32;;;;;;;6.55;3.72;;;;;;;5.91;56.40;100385.72;4420950;26;20001;-66
2024/04/22 06:52:33;;;;;;;6.13;3.42;;;;;;;5.97;56.18;100384.47;4449678;26;20000;-67
2024/04/22 06:54:33;;;;;;;7.03;3.27;;;;;;;6.06;56.08;100388.31;4454022;26;20004;-68
2024/04/22 06:56:35;;;;;;;7.53;3.65;;;;;;;5.90;55.92;100385.84;4403810;27;20249;-66
2024/04/22 06:58:36;;;;;;;8.40;3.78;;;;;;;5.99;55.43;100382.59;4463705;26;20023;-66
2024/04/22 07:00:37;;;;;;;6.10;3.50;;;;;;;6.21;55.12;100383.75;4463119;26;20681;-69
2024/04/22 07:02:38;;;;;;;5.88;3.28;;;;;;;6.33;55.36;100390.81;4460220;26;20392;-67
2024/04/22 07:04:38;;;;;;;6.87;3.83;;;;;;;6.31;55.04;100381.25;4431923;26;20000;-68
2024/04/22 07:06:39;;;;;;;8.52;3.95;;;;;;;6.40;54.91;100386.78;4462385;26;20238;-67
2024/04/22 07:08:39;;;;;;;6.05;3.13;;;;;;;6.44;54.57;100391.84;4463127;26;20011;-66
2024/04/22 07:10:40;;;;;;;8.68;3.67;;;;;;;6.36;54.52;100381.81;4434936;26;20074;-65
2024/04/22 07:12:41;;;;;;;6.18;3.10;;;;;;;6.54;54.47;100392.91;4465572;26;20051;-67
2024/04/22 07:14:42;;;;;;;5.75;3.20;;;;;;;6.61;54.12;100382.69;4467471;26;20281;-66
2024/04/22 07:16:42;;;;;;;7.13;3.70;;;;;;;6.89;54.00;100386.84;4456627;26;20050;-67
2024/04/22 07:18:43;;;;;;;7.38;3.20;;;;;;;6.90;53.70;100382.38;4458084;26;20040;-67
2024/04/22 07:20:43;;;;;;;6.07;3.20;;;;;;;7.02;53.34;100384.97;4451936;26;20011;-67
2024/04/22 07:22:44;;;;;;;6.07;3.17;;;;;;;7.25;52.63;100370.91;4456203;26;20270;-67
2024/04/22 07:24:47;;;;;;;5.47;3.00;;;;;;;7.12;52.88;100376.31;4452657;26;20046;-67
2024/04/22 07:26:47;;;;;;;8.85;3.53;;;;;;;7.11;52.64;100363.97;4424528;26;20001;-66
2024/04/22 07:28:50;;;;;;;6.07;3.33;;;;;;;7.27;52.44;100369.88;4454108;26;20049;-66
2024/04/22 07:30:51;;;;;;;5.97;2.83;;;;;;;7.45;52.47;100369.44;4453094;26;20000;-67
2024/04/22 07:32:53;;;;;;;6.63;3.05;;;;;;;7.49;52.27;100366.41;4451110;26;20714;-65
2024/04/22 07:34:54;;;;;;;7.10;3.17;;;;;;;7.61;51.83;100366.41;4449982;26;20041;-66
2024/04/22 07:37:08;;;;;;;6.82;3.40;;;;;;;8.22;50.84;100365.28;4452333;26;20011;-68
2024/04/22 07:39:11;;;;;;;7.05;3.25;;;;;;;8.09;50.76;100366.25;4420729;26;20001;-66
2024/04/22 07:41:12;;;;;;;6.05;3.05;;;;;;;8.31;50.22;100361.03;4449231;26;20007;-67
2024/04/22 07:43:13;;;;;;;5.63;3.22;;;;;;;8.50;49.94;100366.59;4448435;26;20441;-65
2024/04/22 07:45:14;;;;;;;5.37;3.07;;;;;;;9.23;48.92;100360.69;4419295;26;20523;-66
2024/04/22 07:47:14;;;;;;;;;;;;;;;8.87;48.66;100363.63;4448882;26;20487;-66
2024/04/22 07:49:14;;;;;;;6.63;3.30;;;;;;;9.20;48.60;100361.78;4455914;26;19956;-67
2024/04/22 07:51:15;;;;;;;7.45;2.85;;;;;;;9.41;47.60;100368.13;4428985;26;19997;-66
2024/04/22 07:53:15;;;;;;;5.68;3.20;;;;;;;9.20;47.70;100372.47;4431198;26;19997;-65
2024/04/22 07:55:16;;;;;;;9.80;2.85;;;;;;;9.40;47.34;100351.28;4455921;26;19996;-67
2024/04/22 07:57:18;;;;;;;6.80;3.20;;;;;;;9.33;47.26;100364.28;4434547;26;20007;-67
2024/04/22 07:59:18;;;;;;;5.15;2.95;;;;;;;9.47;47.05;100355.09;4468326;26;20031;-68
2024/04/22 08:01:19;;;;;;;5.82;3.38;;;;;;;9.48;46.53;100353.31;4426565;26;20005;-65
2024/04/22 08:03:20;;;;;;;10.25;2.90;;;;;;;9.60;46.67;100359.41;4447715;26;20111;-65
2024/04/22 08:05:21;;;;;;;5.80;2.85;;;;;;;8.95;47.36;100356.81;4448423;26;20007;-67
2024/04/22 08:07:21;;;;;;;5.90;3.00;;;;;;;9.15;47.11;100358.69;4448147;26;20063;-66
2024/04/22 08:09:22;;;;;;;5.90;3.17;;;;;;;9.21;47.33;100355.50;4448065;26;20038;-65
2024/04/22 08:11:23;;;;;;;5.40;2.92;;;;;;;9.54;46.62;100351.94;4447823;26;20011;-64
2024/04/22 08:13:23;;;;;;;4.38;2.65;;;;;;;9.88;46.07;100346.34;4446673;26;20011;-66
2024/04/22 08:15:24;;;;;;;5.40;3.10;;;;;;;9.97;45.86;100349.06;4448226;26;20015;-66
2024/04/22 08:17:25;;;;;;;6.53;2.90;;;;;;;9.76;45.42;100346.44;4453610;26;20030;-67
2024/04/22 08:19:25;;;;;;;4.93;2.22;;;;;;;10.50;44.56;100340.97;4464550;26;20000;-67
2024/04/22 08:21:25;;;;;;;5.03;2.70;;;;;;;10.07;44.63;100343.78;4450275;26;20007;-68
2024/04/22 08:23:26;;;;;;;4.72;3.10;;;;;;;9.68;44.56;100348.91;4447659;26;20219;-66
2024/04/22 08:25:27;;;;;;;;;;;;;;;9.72;44.10;100354.84;4448581;26;20669;-67
2024/04/22 08:27:28;;;;;;;6.57;2.53;;;;;;;9.94;44.38;100352.03;4417208;26;19926;-67
2024/04/22 08:29:28;;;;;;;5.05;2.53;;;;;;;10.24;44.06;100353.00;4447784;26;19992;-65
2024/04/22 08:31:31;;;;;;;5.03;2.90;;;;;;;10.58;43.50;100341.16;4447318;26;20067;-66
2024/04/22 08:33:32;;;;;;;5.80;3.15;;;;;;;10.52;43.13;100341.69;4447234;26;20000;-66
2024/04/22 08:35:33;;;;;;;6.00;2.97;;;;;;;10.53;43.11;100332.69;4447813;26;20326;-67
2024/04/22 08:37:33;;;;;;;4.72;2.65;;;;;;;10.82;42.94;100338.06;4447882;26;20324;-66
2024/04/22 08:39:34;;;;;;;4.10;2.50;;;;;;;10.82;42.75;100346.09;4448907;26;20011;-66
2024/04/22 08:41:38;;;;;;;5.82;3.10;;;;;;;10.92;42.18;100336.25;4450665;26;19997;-70
2024/04/22 08:43:38;;;;;;;6.68;3.47;;;;;;;11.08;42.57;100334.88;4450670;26;20456;-66
2024/04/22 08:45:42;;;;;;;5.10;2.90;;;;;;;10.84;42.03;100336.09;4456454;26;20000;-70
2024/04/22 08:47:42;;;;;;;5.63;2.85;;;;;;;10.43;42.45;100343.38;4455550;26;20333;-68
2024/04/22 08:49:43;;;;;;;5.72;2.70;;;;;;;10.75;42.36;100335.13;4457139;26;20007;-67
2024/04/22 08:51:44;;;;;;;4.40;2.40;;;;;;;10.29;42.54;100341.91;4448240;26;20012;-67
2024/04/22 08:53:44;;;;;;;5.38;3.05;;;;;;;10.75;42.63;100337.81;4447275;26;20000;-65
2024/04/22 08:55:45;;;;;;;3.95;2.28;;;;;;;10.54;42.45;100339.72;4447746;26;20312;-66
2024/04/22 08:57:46;;;;;;;7.23;2.63;;;;;;;10.43;42.98;100344.19;4447841;26;20000;-69
2024/04/22 08:59:46;;;;;;;5.70;2.78;;;;;;;10.22;43.21;100335.38;4448736;26;20278;-67
2024/04/22 09:02:06;;;;;;;6.35;2.55;;;;;;;10.24;42.41;100341.44;4447713;26;20452;-67
2024/04/22 09:04:07;;;;;;;6.13;2.45;;;;;;;10.55;42.70;100336.91;4447368;26;20008;-67
2024/04/22 09:06:11;;;;;;;4.90;2.65;;;;;;;10.73;41.86;100334.41;4447300;26;20012;-66
2024/04/22 09:08:14;;;;;;;4.78;2.60;;;;;;;11.02;41.31;100330.91;4417003;26;20025;-66
2024/04/22 09:10:17;;;;;;;5.35;2.80;;;;;;;11.51;40.65;100327.34;4416384;26;20013;-67
2024/04/22 09:12:17;;;;;;;4.90;2.72;;;;;;;11.28;40.81;100327.66;4446579;26;20756;-66
2024/04/22 09:14:18;;;;;;;4.10;2.20;;;;;;;11.52;40.63;100337.09;4447137;26;20004;-67
2024/04/22 09:16:18;;;;;;;5.70;2.50;;;;;;;11.10;40.99;100345.41;4447533;26;20544;-64
2024/04/22 09:18:19;;;;;;;4.38;2.15;;;;;;;11.38;40.22;100335.69;4447533;26;20001;-65
2024/04/22 09:20:24;;;;;;;5.90;2.90;;;;;;;11.38;39.44;100336.53;4447052;26;20011;-66
2024/04/22 09:22:24;;;;;;;5.90;2.58;;;;;;;10.79;40.57;100333.03;4414768;26;20128;-67
2024/04/22 09:24:25;;;;;;;4.75;2.70;;;;;;;10.82;40.55;100339.91;4447940;26;20012;-65
2024/04/22 09:26:26;;;;;;;5.30;2.80;;;;;;;10.70;40.45;100339.22;4419268;26;20008;-69
2024/04/22 09:28:33;;;;;;;;;;;;;;;10.57;39.81;100340.28;4450461;26;20012;-67
2024/04/22 09:30:40;;;;;;;5.65;2.50;;;;;;;10.30;40.93;100338.22;4449792;26;20002;-65
2024/04/22 09:32:45;;;;;;;3.92;1.98;;;;;;;10.60;40.66;100339.16;4449109;26;20014;-67
2024/04/22 09:34:49;;;;;;;5.63;2.53;;;;;;;10.63;39.97;100328.22;4449909;26;20018;-67
2024/04/22 09:36:50;;;;;;;6.45;2.40;;;;;;;10.49;40.13;100325.91;4419548;26;20036;-66
2024/04/22 09:38:51;;;;;;;5.03;2.72;;;;;;;10.54;39.39;100326.38;4419770;26;20344;-69
2024/04/22 09:40:53;;;;;;;4.65;1.98;;;;;;;10.17;39.33;100326.94;4449719;26;20434;-68